Time;durP1;ratioP1;P1;durP2;ratioP2;P2;SDS_P1;SDS_P2;PMS_P1;PMS_P2;Temp;Humidity;BMP_temperature;BMP_pressure;BME280_temperature;BME280_humidity;BME280_pressure;Samples;Min_cycle;Max_cycle;Signal;HPM_P1;HPM_P2
2021/01/18 00:00:36;;;;;;;0.17;0.17;;;-2.10;99.90;;;;;;5007344;28;20230;-83
2021/01/18 00:03:02;;;;;;;0.20;0.20;;;-2.00;99.90;;;;;;5007562;28;20285;-83
2021/01/18 00:05:28;;;;;;;0.20;0.20;;;-2.10;99.90;;;;;;5009456;28;20174;-84
2021/01/18 00:07:54;;;;;;;0.20;0.20;;;-2.00;99.90;;;;;;5009648;28;20222;-84
2021/01/18 00:10:22;;;;;;;1.20;1.20;;;-2.00;99.90;;;;;;5038123;28;20244;-84
2021/01/18 00:12:53;;;;;;;0.73;0.73;;;-2.00;99.90;;;;;;5048815;28;20208;-84
2021/01/18 00:15:21;;;;;;;0.20;0.20;;;-2.00;99.90;;;;;;5047394;28;20232;-85
2021/01/18 00:17:47;;;;;;;0.10;0.10;;;-2.00;99.90;;;;;;5047726;28;20507;-84
2021/01/18 00:20:15;;;;;;;1.58;1.52;;;-2.10;99.90;;;;;;5047589;28;20173;-84
2021/01/18 00:22:42;;;;;;;0.20;0.20;;;-2.10;99.90;;;;;;5048743;28;20220;-84
2021/01/18 00:25:11;;;;;;;1.10;1.10;;;-2.10;99.90;;;;;;5047395;28;20177;-85
2021/01/18 00:27:38;;;;;;;1.17;1.17;;;-2.10;99.90;;;;;;5047119;28;20157;-84
2021/01/18 00:30:10;;;;;;;1.20;1.20;;;-2.00;99.90;;;;;;5048788;28;20169;-85
2021/01/18 00:32:39;;;;;;;0.20;0.20;;;-2.10;99.90;;;;;;5047468;28;20269;-85
2021/01/18 00:35:06;;;;;;;1.75;1.60;;;-2.10;99.90;;;;;;5047301;28;20165;-85
2021/01/18 00:37:39;;;;;;;0.25;0.25;;;-2.10;99.90;;;;;;5026547;28;20205;-84
2021/01/18 00:40:05;;;;;;;0.93;0.90;;;-2.20;99.90;;;;;;5031603;28;20194;-83
2021/01/18 00:42:31;;;;;;;1.00;0.82;;;-2.20;99.90;;;;;;5009201;28;20226;-84
2021/01/18 00:44:57;;;;;;;0.55;0.55;;;-2.30;99.90;;;;;;5016950;28;20193;-85
2021/01/18 00:47:23;;;;;;;0.40;0.40;;;-2.50;99.90;;;;;;5032919;28;20193;-82
2021/01/18 00:49:48;;;;;;;1.60;1.55;;;-2.60;99.90;;;;;;5030705;28;20173;-84
2021/01/18 00:52:14;;;;;;;0.47;0.47;;;-2.50;99.90;;;;;;5030065;28;20174;-83
2021/01/18 00:54:40;;;;;;;0.10;0.10;;;-2.50;99.90;;;;;;5031026;28;20189;-83
2021/01/18 00:57:06;;;;;;;1.10;1.10;;;-2.50;99.90;;;;;;5030426;28;20208;-83
2021/01/18 00:59:32;;;;;;;0.40;0.40;;;-2.60;99.90;;;;;;5030114;28;20200;-83
2021/01/18 01:01:57;;;;;;;0.55;0.55;;;-2.70;99.90;;;;;;5030877;28;20183;-85
2021/01/18 01:04:24;;;;;;;0.20;0.20;;;-2.90;99.90;;;;;;5032788;28;20154;-85
2021/01/18 01:06:50;;;;;;;0.85;0.85;;;-2.90;99.90;;;;;;5030929;28;20174;-86
2021/01/18 01:09:16;;;;;;;0.70;0.70;;;-2.80;99.90;;;;;;5030066;28;20220;-85
2021/01/18 01:11:46;;;;;;;0.32;0.32;;;-2.90;99.90;;;;;;5031108;28;20193;-85
2021/01/18 01:14:12;;;;;;;1.20;1.20;;;-2.90;99.90;;;;;;5030055;28;20190;-86
2021/01/18 01:16:41;;;;;;;0.10;0.10;;;-3.00;99.90;;;;;;5031736;28;20194;-85
2021/01/18 01:19:09;;;;;;;0.10;0.10;;;-3.00;99.90;;;;;;5032339;28;20184;-83
2021/01/18 01:21:35;;;;;;;0.10;0.10;;;-3.00;99.90;;;;;;5048014;28;20173;-83
2021/01/18 01:24:00;;;;;;;0.17;0.17;;;-3.10;99.90;;;;;;5047802;28;20205;-83
2021/01/18 01:26:26;;;;;;;0.30;0.30;;;-3.10;99.90;;;;;;5029432;28;20212;-82
2021/01/18 01:28:52;;;;;;;0.82;0.82;;;-3.10;99.90;;;;;;5031551;28;20234;-83
2021/01/18 01:31:19;;;;;;;1.50;1.40;;;-3.10;99.90;;;;;;5030882;28;20234;-81
2021/01/18 01:33:45;;;;;;;1.52;1.17;;;-3.10;99.90;;;;;;5049696;28;20173;-82
2021/01/18 01:36:15;;;;;;;1.23;1.17;;;-3.10;99.90;;;;;;5032722;28;20201;-83
2021/01/18 01:38:44;;;;;;;0.20;0.20;;;-3.00;99.90;;;;;;5031947;28;20196;-85
2021/01/18 01:41:10;;;;;;;0.28;0.28;;;-3.00;99.90;;;;;;5029611;28;20158;-85
2021/01/18 01:43:36;;;;;;;0.10;0.10;;;-3.00;99.90;;;;;;4992623;28;20191;-84
2021/01/18 01:46:02;;;;;;;0.20;0.20;;;-2.90;99.90;;;;;;5007919;28;20206;-85
2021/01/18 01:48:29;;;;;;;0.38;0.38;;;-2.90;99.90;;;;;;4991774;28;20273;-84
2021/01/18 01:50:55;;;;;;;0.25;0.25;;;-2.80;99.90;;;;;;5007478;28;20206;-84
2021/01/18 01:53:30;;;;;;;1.00;1.00;;;-2.80;99.90;;;;;;4992801;28;20169;-84
2021/01/18 01:55:59;;;;;;;0.20;0.20;;;-2.70;99.90;;;;;;4992686;28;20221;-84
2021/01/18 01:58:25;;;;;;;0.68;0.68;;;-2.60;99.90;;;;;;4992426;28;20164;-83
2021/01/18 02:00:54;;;;;;;0.50;0.50;;;-2.60;99.90;;;;;;4989486;28;20700;-84
2021/01/18 02:03:41;;;;;;;0.30;0.30;;;-2.50;99.90;;;;;;4992048;28;20164;-84
2021/01/18 02:06:08;;;;;;;2.22;2.03;;;-2.50;99.90;;;;;;4990368;28;20202;-84
2021/01/18 02:08:34;;;;;;;0.47;0.47;;;-2.40;99.90;;;;;;4990627;28;20180;-84
2021/01/18 02:11:00;;;;;;;2.13;1.95;;;-2.40;99.90;;;;;;4988647;28;20199;-84
2021/01/18 02:13:33;;;;;;;0.55;0.55;;;-2.40;99.90;;;;;;4992406;28;20262;-83
2021/01/18 02:16:22;;;;;;;0.10;0.10;;;-2.40;99.90;;;;;;4992352;28;20216;-82
2021/01/18 02:19:16;;;;;;;0.57;0.57;;;-2.40;99.90;;;;;;4991299;28;20191;-83
2021/01/18 02:22:07;;;;;;;0.65;0.65;;;-2.30;99.90;;;;;;4988284;28;20262;-83
2021/01/18 02:25:01;;;;;;;0.25;0.25;;;-2.30;99.90;;;;;;4972925;28;20218;-82
2021/01/18 02:27:51;;;;;;;0.38;0.38;;;-2.30;99.90;;;;;;4972627;29;20188;-83
2021/01/18 02:30:44;;;;;;;0.50;0.50;;;-2.30;99.90;;;;;;4987491;28;20168;-83
2021/01/18 02:33:31;;;;;;;0.10;0.10;;;-2.30;99.90;;;;;;4972482;28;20577;-83
2021/01/18 02:36:09;;;;;;;1.67;1.58;;;-2.30;99.90;;;;;;4997877;28;20211;-82
2021/01/18 02:38:35;;;;;;;0.10;0.10;;;-2.30;99.90;;;;;;4972900;28;20255;-83
2021/01/18 02:41:08;;;;;;;0.20;0.20;;;-2.40;99.90;;;;;;5003405;28;20183;-82
2021/01/18 02:43:50;;;;;;;0.63;0.63;;;-2.50;99.90;;;;;;5010922;28;20229;-82
2021/01/18 02:46:21;;;;;;;0.10;0.10;;;-2.40;99.90;;;;;;5026106;28;20212;-82
2021/01/18 02:48:48;;;;;;;1.83;1.27;;;-2.30;99.90;;;;;;5030753;28;20166;-85
2021/01/18 02:51:23;;;;;;;0.10;0.10;;;-2.30;99.90;;;;;;5029539;28;20198;-86
2021/01/18 02:54:00;;;;;;;1.27;1.20;;;-2.30;99.90;;;;;;5030807;28;20527;-85
2021/01/18 02:56:34;;;;;;;0.30;0.30;;;-2.30;99.90;;;;;;5028510;28;20224;-84
2021/01/18 02:59:01;;;;;;;0.13;0.13;;;-2.30;99.90;;;;;;5029363;28;20174;-84
2021/01/18 03:02:02;;;;;;;0.65;0.65;;;-2.30;99.90;;;;;;5029239;28;20170;-85
2021/01/18 03:04:40;;;;;;;0.20;0.20;;;-2.40;99.90;;;;;;5028253;28;20484;-84
2021/01/18 03:07:38;;;;;;;0.32;0.32;;;-2.40;99.90;;;;;;5031369;28;20240;-84
2021/01/18 03:10:07;;;;;;;0.10;0.10;;;-2.30;99.90;;;;;;5028115;28;20196;-85
2021/01/18 03:12:59;;;;;;;0.17;0.17;;;-2.40;99.90;;;;;;5030327;28;20196;-86
2021/01/18 03:15:28;;;;;;;0.90;0.90;;;-2.50;99.90;;;;;;5029115;28;20224;-85
2021/01/18 03:18:00;;;;;;;0.57;0.57;;;-2.40;99.90;;;;;;5045512;28;20170;-85
2021/01/18 03:20:27;;;;;;;0.17;0.17;;;-2.40;99.90;;;;;;5030607;28;20154;-86
2021/01/18 03:22:53;;;;;;;0.32;0.32;;;-2.40;99.90;;;;;;5030543;28;20697;-86
2021/01/18 03:25:19;;;;;;;0.40;0.40;;;-2.40;99.90;;;;;;5046065;28;20269;-86
2021/01/18 03:27:57;;;;;;;1.75;1.65;;;-2.40;99.90;;;;;;5031731;28;20165;-86
2021/01/18 03:30:24;;;;;;;0.10;0.10;;;-2.40;99.90;;;;;;5029782;28;20170;-86
2021/01/18 03:32:55;;;;;;;3.55;3.30;;;-2.40;99.90;;;;;;5031081;28;20162;-86
2021/01/18 03:35:22;;;;;;;0.45;0.45;;;-2.40;99.90;;;;;;5029285;28;20205;-86
2021/01/18 03:37:55;;;;;;;0.10;0.10;;;-2.30;99.90;;;;;;5028842;28;20184;-82
2021/01/18 03:40:22;;;;;;;2.13;1.60;;;-2.40;99.90;;;;;;5028933;28;20198;-85
2021/01/18 03:42:56;;;;;;;0.10;0.10;;;-2.60;99.90;;;;;;5029679;28;20333;-85
2021/01/18 03:45:27;;;;;;;1.13;1.13;;;-2.60;99.90;;;;;;5029950;28;20190;-85
2021/01/18 03:47:53;;;;;;;1.42;1.35;;;-2.50;99.90;;;;;;5045066;28;20265;-85
2021/01/18 03:50:19;;;;;;;1.35;1.30;;;-2.50;99.90;;;;;;5022059;28;20210;-85
2021/01/18 03:52:49;;;;;;;0.50;0.50;;;-2.50;99.90;;;;;;5031140;28;20230;-84
2021/01/18 03:55:18;;;;;;;0.75;0.75;;;-2.40;99.90;;;;;;5032696;28;20206;-82
2021/01/18 03:57:49;;;;;;;0.82;0.82;;;-2.50;99.90;;;;;;5032095;28;20208;-86
2021/01/18 04:00:17;;;;;;;0.73;0.70;;;-2.50;99.90;;;;;;5033328;28;20186;-87
2021/01/18 04:02:45;;;;;;;0.93;0.93;;;-2.50;99.90;;;;;;5030860;28;20161;-85
2021/01/18 04:05:14;;;;;;;0.80;0.40;;;-2.50;99.90;;;;;;5030465;28;20157;-86
2021/01/18 04:07:43;;;;;;;3.47;3.20;;;-2.40;99.90;;;;;;5030290;28;20158;-84
2021/01/18 04:10:10;;;;;;;0.50;0.50;;;-2.40;99.90;;;;;;5027786;28;20197;-84
2021/01/18 04:12:40;;;;;;;0.45;0.45;;;-2.40;99.90;;;;;;5027914;28;20181;-84
2021/01/18 04:15:08;;;;;;;0.10;0.10;;;-2.30;99.90;;;;;;5028634;28;20198;-84
2021/01/18 04:17:34;;;;;;;1.90;1.77;;;-2.40;99.90;;;;;;5029232;28;20158;-84
2021/01/18 04:20:00;;;;;;;0.22;0.22;;;-2.40;99.90;;;;;;5027942;28;20170;-84
2021/01/18 04:22:26;;;;;;;0.28;0.28;;;-2.40;99.90;;;;;;5029099;28;20174;-84
2021/01/18 04:24:52;;;;;;;0.32;0.32;;;-2.40;99.90;;;;;;5029161;28;20190;-83
2021/01/18 04:27:18;;;;;;;0.52;0.52;;;-2.40;99.90;;;;;;5029022;28;20166;-86
2021/01/18 04:29:44;;;;;;;0.10;0.10;;;-2.40;99.90;;;;;;5026827;28;20225;-83
2021/01/18 04:32:12;;;;;;;2.13;2.03;;;-2.40;99.90;;;;;;5028942;28;20158;-83
2021/01/18 04:34:38;;;;;;;0.47;0.47;;;-2.30;99.90;;;;;;5027791;28;20205;-83
2021/01/18 04:37:04;;;;;;;0.22;0.22;;;-2.30;99.90;;;;;;5028551;28;20190;-84
2021/01/18 04:39:30;;;;;;;1.05;1.05;;;-2.30;99.90;;;;;;5027735;28;20164;-84
2021/01/18 04:41:59;;;;;;;1.30;1.30;;;-2.30;99.90;;;;;;5026988;28;20229;-83
2021/01/18 04:44:29;;;;;;;0.90;0.90;;;-2.30;99.90;;;;;;5026470;28;20177;-83
2021/01/18 04:46:56;;;;;;;0.47;0.47;;;-2.30;99.90;;;;;;5028214;28;20611;-85
2021/01/18 04:49:22;;;;;;;0.10;0.10;;;-2.30;99.90;;;;;;5028247;28;20241;-84
2021/01/18 04:51:57;;;;;;;0.30;0.30;;;-2.30;99.90;;;;;;5028497;28;20166;-85
2021/01/18 04:54:27;;;;;;;1.52;1.42;;;-2.40;99.90;;;;;;5027112;28;20253;-85
2021/01/18 04:57:10;;;;;;;0.17;0.17;;;-2.40;99.90;;;;;;5026986;28;20212;-85
2021/01/18 04:59:47;;;;;;;0.13;0.13;;;-2.30;99.90;;;;;;5027375;28;20196;-82
2021/01/18 05:02:22;;;;;;;0.22;0.22;;;-2.40;99.90;;;;;;5028254;28;20154;-82
2021/01/18 05:04:50;;;;;;;1.67;1.65;;;-2.30;99.90;;;;;;5028343;28;20235;-82
2021/01/18 05:07:34;;;;;;;2.00;1.85;;;-2.30;99.90;;;;;;5028451;28;20166;-83
2021/01/18 05:10:13;;;;;;;0.35;0.35;;;-2.20;99.90;;;;;;5026820;28;20198;-82
2021/01/18 05:12:40;;;;;;;0.85;0.85;;;-2.30;99.90;;;;;;5026943;28;20169;-82
2021/01/18 05:15:07;;;;;;;0.20;0.20;;;-2.30;99.90;;;;;;5025222;28;20292;-81
2021/01/18 05:17:44;;;;;;;0.10;0.10;;;-2.40;99.90;;;;;;5028658;28;20213;-86
2021/01/18 05:20:13;;;;;;;1.00;0.90;;;-2.40;99.90;;;;;;5029506;28;20189;-87
2021/01/18 05:22:41;;;;;;;1.42;1.38;;;-2.30;99.90;;;;;;5028302;28;20169;-84
2021/01/18 05:25:08;;;;;;;0.43;0.43;;;-2.40;99.90;;;;;;5028068;28;20192;-82
2021/01/18 05:27:34;;;;;;;2.60;2.40;;;-2.40;99.90;;;;;;5026157;28;20173;-83
2021/01/18 05:30:00;;;;;;;1.65;1.55;;;-2.40;99.90;;;;;;5027973;28;20213;-81
2021/01/18 05:32:26;;;;;;;2.08;1.27;;;-2.40;99.90;;;;;;5026768;28;20673;-81
2021/01/18 05:35:13;;;;;;;0.10;0.10;;;-2.40;99.90;;;;;;5026535;28;20189;-82
2021/01/18 05:38:02;;;;;;;0.15;0.15;;;-2.40;99.90;;;;;;5026344;28;20181;-83
2021/01/18 05:40:34;;;;;;;0.70;0.70;;;-2.50;99.90;;;;;;5026439;28;20233;-83
2021/01/18 05:43:02;;;;;;;0.20;0.20;;;-2.40;99.90;;;;;;5026309;28;20214;-84
2021/01/18 05:45:34;;;;;;;3.20;1.42;;;-2.40;99.90;;;;;;5027720;28;20194;-82
2021/01/18 05:48:01;;;;;;;1.05;1.05;;;-2.40;99.90;;;;;;5026312;28;20201;-83
2021/01/18 05:50:28;;;;;;;1.50;1.45;;;-2.50;99.90;;;;;;5026174;28;20229;-81
2021/01/18 05:52:54;;;;;;;0.20;0.20;;;-2.50;99.90;;;;;;5027860;28;20182;-81
2021/01/18 05:55:24;;;;;;;0.20;0.20;;;-2.50;99.90;;;;;;5026331;28;20224;-81
2021/01/18 05:57:56;;;;;;;3.13;2.97;;;-2.50;99.90;;;;;;5026338;28;20166;-82
2021/01/18 06:00:33;;;;;;;0.10;0.10;;;-2.50;99.90;;;;;;5030099;28;20170;-82
2021/01/18 06:03:05;;;;;;;0.63;0.63;;;-2.40;99.90;;;;;;5030085;28;20229;-83
2021/01/18 06:05:33;;;;;;;0.20;0.20;;;-2.40;99.90;;;;;;5031312;28;20189;-83
2021/01/18 06:08:16;;;;;;;1.25;1.25;;;-2.40;99.90;;;;;;5030486;28;20170;-83
2021/01/18 06:10:51;;;;;;;0.10;0.10;;;-2.50;99.90;;;;;;5031400;28;20691;-83
2021/01/18 06:13:34;;;;;;;2.17;2.08;;;-2.60;99.90;;;;;;5031836;28;20604;-84
2021/01/18 06:16:03;;;;;;;0.85;0.85;;;-2.60;99.90;;;;;;5034168;28;20201;-83
2021/01/18 06:18:33;;;;;;;0.15;0.15;;;-2.70;99.90;;;;;;5034586;28;20166;-83
2021/01/18 06:21:00;;;;;;;1.00;1.00;;;-2.80;99.90;;;;;;5031825;28;20210;-84
2021/01/18 06:23:27;;;;;;;0.45;0.45;;;-2.70;99.90;;;;;;5030141;28;20238;-83
2021/01/18 06:25:55;;;;;;;0.20;0.20;;;-2.80;99.90;;;;;;5031054;28;20221;-82
2021/01/18 06:28:29;;;;;;;0.20;0.20;;;-2.80;99.90;;;;;;5030907;28;20158;-80
2021/01/18 06:31:02;;;;;;;2.65;2.55;;;-2.80;99.90;;;;;;5029516;28;20187;-80
2021/01/18 06:33:50;;;;;;;0.10;0.10;;;-2.80;99.90;;;;;;5028794;28;20174;-80
2021/01/18 06:36:24;;;;;;;2.97;2.78;;;-2.80;99.90;;;;;;5030610;28;20248;-81
2021/01/18 06:38:52;;;;;;;0.50;0.50;;;-2.70;99.90;;;;;;5031007;28;20208;-81
2021/01/18 06:41:29;;;;;;;1.08;1.08;;;-2.70;99.90;;;;;;5028941;28;20177;-80
2021/01/18 06:43:56;;;;;;;0.20;0.20;;;-2.60;99.90;;;;;;5029554;28;20189;-82
2021/01/18 06:46:30;;;;;;;0.35;0.35;;;-2.70;99.90;;;;;;5029326;28;20310;-82
2021/01/18 06:48:56;;;;;;;1.10;1.10;;;-2.80;99.90;;;;;;5029430;28;20170;-83
2021/01/18 06:51:24;;;;;;;0.47;0.47;;;-2.80;99.90;;;;;;5029424;28;20170;-83
2021/01/18 06:53:52;;;;;;;1.55;1.55;;;-2.80;99.90;;;;;;5029091;28;20173;-81
2021/01/18 06:56:29;;;;;;;1.45;1.23;;;-2.80;99.90;;;;;;5034841;28;20214;-82
2021/01/18 06:58:56;;;;;;;0.70;0.70;;;-2.80;99.90;;;;;;5043450;28;20169;-80
2021/01/18 07:01:29;;;;;;;0.20;0.20;;;-2.70;99.90;;;;;;5024050;28;20185;-79
2021/01/18 07:04:04;;;;;;;0.47;0.47;;;-2.70;99.90;;;;;;5028503;28;20170;-80
2021/01/18 07:06:35;;;;;;;0.30;0.30;;;-2.80;99.90;;;;;;5026704;28;20189;-81
2021/01/18 07:09:11;;;;;;;0.52;0.52;;;-2.70;99.90;;;;;;5009221;28;20269;-78
2021/01/18 07:11:38;;;;;;;0.55;0.55;;;-2.60;99.90;;;;;;5020197;28;20196;-79
2021/01/18 07:14:09;;;;;;;0.65;0.65;;;-2.50;99.90;;;;;;5049958;28;20170;-79
2021/01/18 07:16:36;;;;;;;0.35;0.35;;;-2.50;99.90;;;;;;5048662;28;20228;-78
2021/01/18 07:19:04;;;;;;;0.55;0.55;;;-2.40;99.90;;;;;;5048371;28;20222;-80
2021/01/18 07:21:41;;;;;;;1.33;1.23;;;-2.40;99.90;;;;;;5038136;28;20209;-79
2021/01/18 07:24:12;;;;;;;0.70;0.70;;;-2.40;99.90;;;;;;5019124;28;20178;-80
2021/01/18 07:27:04;;;;;;;0.85;0.85;;;-2.40;99.90;;;;;;5028846;28;20181;-80
2021/01/18 07:29:32;;;;;;;0.52;0.52;;;-2.20;99.90;;;;;;5029959;28;20158;-79
2021/01/18 07:31:59;;;;;;;0.70;0.70;;;-2.10;99.90;;;;;;5028395;28;20201;-79
2021/01/18 07:34:27;;;;;;;0.40;0.40;;;-2.10;99.90;;;;;;5030289;28;20154;-78
2021/01/18 07:37:04;;;;;;;1.08;1.08;;;-2.10;99.90;;;;;;5030172;28;20240;-81
2021/01/18 07:39:38;;;;;;;1.33;1.33;;;-2.10;99.90;;;;;;5029877;28;20154;-82
2021/01/18 07:42:05;;;;;;;0.55;0.55;;;-2.00;99.90;;;;;;5029629;28;20264;-82
2021/01/18 07:44:46;;;;;;;2.38;2.17;;;-2.10;99.90;;;;;;5039753;28;20174;-82
2021/01/18 07:47:14;;;;;;;1.42;1.42;;;-2.00;99.90;;;;;;5018204;28;20203;-78
2021/01/18 07:49:41;;;;;;;1.70;1.45;;;-2.00;99.90;;;;;;5008605;28;20166;-76
2021/01/18 07:52:23;;;;;;;0.45;0.45;;;-1.90;99.90;;;;;;5038696;28;20202;-78
2021/01/18 07:54:49;;;;;;;1.40;1.40;;;-1.80;99.90;;;;;;5007752;28;20178;-80
2021/01/18 07:57:29;;;;;;;0.40;0.40;;;-1.80;99.90;;;;;;5010086;28;20202;-82
2021/01/18 08:00:27;;;;;;;1.30;1.20;;;-1.70;99.90;;;;;;5010014;28;20608;-83
2021/01/18 08:03:08;;;;;;;0.38;0.38;;;-1.60;99.90;;;;;;5022240;28;20210;-78
2021/01/18 08:05:36;;;;;;;2.00;1.90;;;-1.60;99.90;;;;;;5009722;28;20304;-76
2021/01/18 08:08:09;;;;;;;0.13;0.13;;;-1.70;99.90;;;;;;5008965;28;20163;-74
2021/01/18 08:11:04;;;;;;;1.33;0.98;;;-1.60;99.90;;;;;;5024492;28;20189;-76
2021/01/18 08:13:49;;;;;;;0.73;0.70;;;-1.60;99.90;;;;;;5009438;28;20167;-78
2021/01/18 08:16:37;;;;;;;0.38;0.38;;;-1.50;99.90;;;;;;5030762;28;20343;-80
2021/01/18 08:19:14;;;;;;;1.23;0.93;;;-1.60;99.90;;;;;;5039098;28;20205;-78
2021/01/18 08:21:55;;;;;;;0.47;0.47;;;-1.70;99.90;;;;;;5022098;28;20193;-79
2021/01/18 08:24:26;;;;;;;1.90;1.80;;;-1.60;99.90;;;;;;5044970;28;20177;-79
2021/01/18 08:27:00;;;;;;;0.20;0.20;;;-1.60;99.90;;;;;;5030748;28;20250;-77
2021/01/18 08:29:45;;;;;;;1.25;1.17;;;-1.60;99.90;;;;;;5028245;28;20205;-77
2021/01/18 08:32:30;;;;;;;3.15;2.95;;;-1.70;99.90;;;;;;5028396;28;20201;-78
2021/01/18 08:35:21;;;;;;;2.80;1.25;;;-1.70;99.90;;;;;;5043794;28;20204;-80
2021/01/18 08:38:07;;;;;;;5.72;3.03;;;-1.60;99.90;;;;;;5045723;28;20180;-81
2021/01/18 08:40:39;;;;;;;0.90;0.90;;;-1.60;99.90;;;;;;5035856;28;20205;-75
2021/01/18 08:43:05;;;;;;;0.20;0.20;;;-1.50;99.90;;;;;;5027218;28;20225;-75
2021/01/18 08:45:53;;;;;;;0.30;0.30;;;-1.50;99.90;;;;;;5028512;28;20162;-75
2021/01/18 08:48:20;;;;;;;0.10;0.10;;;-1.30;99.90;;;;;;5028481;28;20166;-76
2021/01/18 08:50:54;;;;;;;1.10;1.10;;;-1.10;99.90;;;;;;5026694;28;20307;-77
2021/01/18 08:53:43;;;;;;;0.38;0.38;;;-0.90;99.90;;;;;;5028509;28;20300;-77
2021/01/18 08:56:29;;;;;;;1.02;1.02;;;-0.70;99.90;;;;;;5009067;28;20669;-78
2021/01/18 08:58:55;;;;;;;1.17;1.05;;;0.00;99.90;;;;;;5026453;28;20185;-78
2021/01/18 09:01:26;;;;;;;1.13;0.85;;;0.30;99.90;;;;;;5013510;28;20221;-77
2021/01/18 09:04:02;;;;;;;2.30;1.50;;;0.70;99.90;;;;;;5043523;28;20178;-76
2021/01/18 09:06:28;;;;;;;1.98;1.52;;;1.00;99.90;;;;;;5016818;28;20269;-77
2021/01/18 09:09:03;;;;;;;1.38;1.38;;;0.90;99.90;;;;;;5022871;28;20179;-77
2021/01/18 09:11:29;;;;;;;0.73;0.73;;;0.70;99.90;;;;;;5008021;28;20220;-77
2021/01/18 09:13:54;;;;;;;7.15;2.20;;;0.50;99.90;;;;;;5006637;28;20210;-79
2021/01/18 09:16:20;;;;;;;0.80;0.80;;;0.40;99.90;;;;;;5022908;28;20597;-78
2021/01/18 09:18:46;;;;;;;0.50;0.50;;;0.70;99.90;;;;;;5006338;28;20185;-79
2021/01/18 09:21:15;;;;;;;1.17;1.17;;;1.00;99.90;;;;;;5022197;28;20217;-80
2021/01/18 09:23:42;;;;;;;0.50;0.50;;;1.20;99.90;;;;;;5006467;28;20191;-80
2021/01/18 09:26:15;;;;;;;1.23;1.23;;;1.00;99.90;;;;;;5038884;28;20205;-78
2021/01/18 09:28:51;;;;;;;3.60;3.38;;;1.00;99.90;;;;;;5026388;28;20174;-77
2021/01/18 09:31:18;;;;;;;2.15;1.95;;;0.50;99.90;;;;;;5025421;28;20245;-79
2021/01/18 09:33:44;;;;;;;0.98;0.98;;;0.50;99.90;;;;;;5018652;28;20197;-82
2021/01/18 09:36:15;;;;;;;2.38;2.28;;;0.40;99.90;;;;;;5031264;28;20216;-79
2021/01/18 09:38:44;;;;;;;0.32;0.32;;;0.30;99.90;;;;;;5014749;28;20608;-77
2021/01/18 09:41:11;;;;;;;0.77;0.77;;;0.30;99.90;;;;;;5027885;28;20248;-79
2021/01/18 09:43:37;;;;;;;0.30;0.30;;;0.20;99.90;;;;;;5031243;28;20197;-79
2021/01/18 09:46:03;;;;;;;1.05;1.05;;;0.20;99.90;;;;;;5031032;28;20173;-80
2021/01/18 09:48:29;;;;;;;1.13;0.98;;;0.40;99.90;;;;;;5031404;28;20189;-80
2021/01/18 09:50:58;;;;;;;1.67;1.60;;;0.10;99.90;;;;;;5032623;28;20165;-80
2021/01/18 09:53:25;;;;;;;0.20;0.20;;;0.50;99.90;;;;;;5046829;28;20225;-79
2021/01/18 09:55:53;;;;;;;0.85;0.85;;;0.80;99.90;;;;;;5031351;28;20220;-80
2021/01/18 09:58:23;;;;;;;3.38;3.05;;;1.20;99.90;;;;;;5042862;28;20193;-79
2021/01/18 10:00:50;;;;;;;1.42;1.40;;;1.30;99.90;;;;;;5025208;28;20199;-79
2021/01/18 10:03:37;;;;;;;2.75;2.65;;;1.60;99.90;;;;;;5046168;28;20221;-80
2021/01/18 10:06:20;;;;;;;0.47;0.47;;;1.60;99.90;;;;;;5026283;28;20167;-79
2021/01/18 10:08:48;;;;;;;0.68;0.68;;;1.70;99.90;;;;;;5010920;28;20198;-78
2021/01/18 10:11:35;;;;;;;4.05;2.83;;;2.00;99.90;;;;;;5011846;28;20194;-79
2021/01/18 10:14:02;;;;;;;0.80;0.80;;;2.10;99.90;;;;;;5031863;28;20193;-79
2021/01/18 10:16:28;;;;;;;0.88;0.82;;;2.10;99.90;;;;;;5017626;28;20543;-80
2021/01/18 10:18:53;;;;;;;1.05;0.98;;;2.50;99.90;;;;;;5045362;28;20170;-79
2021/01/18 10:21:33;;;;;;;2.05;1.90;;;2.70;99.90;;;;;;5037876;28;20170;-84
2021/01/18 10:23:59;;;;;;;0.80;0.80;;;3.30;99.90;;;;;;5041937;28;20255;-80
2021/01/18 10:26:26;;;;;;;0.77;0.77;;;3.70;99.90;;;;;;5025189;28;20206;-79
2021/01/18 10:29:00;;;;;;;2.65;2.17;;;3.70;99.90;;;;;;5010821;28;20178;-79
2021/01/18 10:31:27;;;;;;;0.57;0.55;;;3.00;99.90;;;;;;5045428;28;20233;-78
2021/01/18 10:34:16;;;;;;;4.80;2.97;;;3.10;99.90;;;;;;5045287;28;20228;-79
2021/01/18 10:36:44;;;;;;;0.52;0.52;;;3.20;99.90;;;;;;5029342;28;20302;-81
2021/01/18 10:39:30;;;;;;;1.85;1.75;;;3.40;99.90;;;;;;5045801;28;20170;-78
2021/01/18 10:42:06;;;;;;;0.40;0.40;;;3.20;99.90;;;;;;5029991;28;20224;-77
2021/01/18 10:44:34;;;;;;;1.90;1.80;;;3.90;99.90;;;;;;5027716;28;20257;-78
2021/01/18 10:47:00;;;;;;;0.30;0.30;;;4.40;99.90;;;;;;5029017;28;20178;-79
2021/01/18 10:49:35;;;;;;;0.20;0.20;;;3.80;99.90;;;;;;5029277;28;20227;-78
2021/01/18 10:52:03;;;;;;;1.98;1.88;;;3.90;99.90;;;;;;5030270;28;20245;-80
2021/01/18 10:54:29;;;;;;;1.30;1.30;;;4.70;99.90;;;;;;5029592;28;20221;-75
2021/01/18 10:56:57;;;;;;;2.47;2.22;;;5.00;99.90;;;;;;5030020;28;20273;-79
2021/01/18 10:59:23;;;;;;;3.65;3.38;;;4.90;99.90;;;;;;5030149;28;20210;-80
2021/01/18 11:02:06;;;;;;;4.07;3.13;;;4.70;99.90;;;;;;5028713;28;20256;-81
2021/01/18 11:04:43;;;;;;;1.63;1.58;;;4.20;99.90;;;;;;5030166;28;20162;-77
2021/01/18 11:07:10;;;;;;;6.97;2.30;;;4.20;99.90;;;;;;5029616;28;20174;-80
2021/01/18 11:09:36;;;;;;;1.00;1.00;;;4.10;99.90;;;;;;5028615;28;20202;-80
2021/01/18 11:12:03;;;;;;;2.58;2.38;;;4.30;99.90;;;;;;5029115;28;20237;-81
2021/01/18 11:14:30;;;;;;;1.73;1.55;;;4.30;99.90;;;;;;5029237;28;20220;-82
2021/01/18 11:17:06;;;;;;;2.53;2.33;;;4.00;99.90;;;;;;5029994;28;20310;-80
2021/01/18 11:19:32;;;;;;;1.75;1.65;;;3.60;99.90;;;;;;5029520;28;20265;-81
2021/01/18 11:21:58;;;;;;;2.13;1.33;;;3.20;99.90;;;;;;5033449;28;20651;-79
2021/01/18 11:24:24;;;;;;;2.30;2.10;;;2.80;99.90;;;;;;5046224;28;20172;-80
2021/01/18 11:26:51;;;;;;;1.85;1.75;;;2.90;99.90;;;;;;5016833;28;20190;-79
2021/01/18 11:29:18;;;;;;;3.15;1.42;;;3.10;99.90;;;;;;5010348;28;20222;-80
2021/01/18 11:31:45;;;;;;;1.45;1.45;;;3.30;99.90;;;;;;5029506;28;20181;-81
2021/01/18 11:34:12;;;;;;;1.33;1.25;;;3.30;99.90;;;;;;5028848;28;20189;-80
2021/01/18 11:36:39;;;;;;;0.90;0.63;;;2.70;99.90;;;;;;5044725;28;20357;-79
2021/01/18 11:39:06;;;;;;;0.77;0.77;;;2.60;99.90;;;;;;5028247;28;20202;-82
2021/01/18 11:41:36;;;;;;;2.05;1.95;;;2.90;99.90;;;;;;5028912;28;20213;-80
2021/01/18 11:44:04;;;;;;;2.15;1.73;;;3.20;99.90;;;;;;5027424;28;20198;-86
2021/01/18 11:46:31;;;;;;;1.40;1.30;;;3.10;99.90;;;;;;5022238;28;20179;-84
2021/01/18 11:48:57;;;;;;;1.75;0.77;;;3.30;99.90;;;;;;5023361;28;20193;-83
2021/01/18 11:51:23;;;;;;;1.55;1.55;;;2.90;99.90;;;;;;5044955;28;20174;-82
2021/01/18 11:53:49;;;;;;;5.68;2.45;;;2.70;99.90;;;;;;5029190;28;20252;-81
2021/01/18 11:56:15;;;;;;;3.05;2.38;;;2.40;99.90;;;;;;5028870;28;20210;-79
2021/01/18 11:58:42;;;;;;;1.98;1.88;;;2.30;99.90;;;;;;5033275;28;20173;-83
2021/01/18 12:01:08;;;;;;;1.90;1.13;;;2.50;99.90;;;;;;5031112;28;20166;-82
2021/01/18 12:03:35;;;;;;;3.58;3.33;;;2.50;99.90;;;;;;5031920;28;20194;-80
2021/01/18 12:06:01;;;;;;;0.60;0.60;;;2.40;99.90;;;;;;5033387;28;20166;-80
2021/01/18 12:08:26;;;;;;;2.33;2.10;;;2.40;99.90;;;;;;5022070;28;20194;-80
2021/01/18 12:10:52;;;;;;;0.98;0.98;;;2.40;99.90;;;;;;5048019;28;20177;-79
2021/01/18 12:13:18;;;;;;;1.73;1.70;;;2.20;99.90;;;;;;5031201;28;20197;-78
2021/01/18 12:15:44;;;;;;;2.60;2.35;;;2.30;99.90;;;;;;5029183;28;20189;-80
2021/01/18 12:18:10;;;;;;;0.13;0.13;;;2.50;99.90;;;;;;5029491;28;20213;-79
2021/01/18 12:20:37;;;;;;;0.57;0.55;;;2.70;99.90;;;;;;5015202;28;20190;-78
2021/01/18 12:23:03;;;;;;;2.85;2.65;;;2.80;99.90;;;;;;5007909;28;20682;-79
2021/01/18 12:25:31;;;;;;;1.95;1.85;;;2.80;99.90;;;;;;5007431;28;20171;-80
2021/01/18 12:27:58;;;;;;;0.65;0.65;;;3.10;99.90;;;;;;5023591;28;20191;-80
2021/01/18 12:30:24;;;;;;;1.45;1.45;;;3.30;99.90;;;;;;5038130;28;20200;-79
2021/01/18 12:32:51;;;;;;;7.20;4.22;;;3.30;99.90;;;;;;5028693;28;20202;-79
2021/01/18 12:35:17;;;;;;;1.58;1.58;;;2.90;99.90;;;;;;5019999;28;20174;-80
2021/01/18 12:37:43;;;;;;;1.17;0.88;;;2.90;99.90;;;;;;5019561;28;20170;-81
2021/01/18 12:40:11;;;;;;;0.22;0.22;;;3.10;99.90;;;;;;5027279;28;20174;-81
2021/01/18 12:42:45;;;;;;;2.03;1.92;;;2.80;99.90;;;;;;5026381;28;20218;-80
2021/01/18 12:45:12;;;;;;;3.35;2.75;;;2.30;99.90;;;;;;5026778;28;20174;-78
2021/01/18 12:47:39;;;;;;;1.63;1.58;;;2.00;99.90;;;;;;5028142;28;20158;-79
2021/01/18 12:50:06;;;;;;;0.57;0.57;;;1.80;99.90;;;;;;5026621;28;20170;-81
2021/01/18 12:52:33;;;;;;;0.75;0.40;;;1.80;99.90;;;;;;5025180;28;20205;-78
2021/01/18 12:54:58;;;;;;;2.25;2.15;;;1.80;99.90;;;;;;5017334;28;20253;-76
2021/01/18 12:57:24;;;;;;;1.52;1.42;;;1.80;99.90;;;;;;5025758;28;20206;-68
2021/01/18 12:59:50;;;;;;;2.95;2.75;;;1.70;99.90;;;;;;5027491;28;20159;-67
2021/01/18 13:02:16;;;;;;;0.65;0.65;;;1.70;99.90;;;;;;5028354;28;20263;-68
2021/01/18 13:04:44;;;;;;;2.60;2.40;;;1.50;99.90;;;;;;5027238;28;20170;-68
2021/01/18 13:07:09;;;;;;;2.10;2.00;;;1.40;99.90;;;;;;5026221;28;20237;-69
2021/01/18 13:09:35;;;;;;;1.35;1.25;;;1.30;99.90;;;;;;5007291;28;20219;-68